Stowell, Texas
Current Conditions -  °F | °C
As of 12:15 PM on Friday 28 Nov 2014 (Local Time) from KBMT Reporting Station
Clear Clear  
Wind Chill: 66°   Ceiling: Unl
Heat Index: 66°   Visibility: 10mi
Dew Point: 53°   Wind: 12mph
Humidity: 61%   Direction: 130°SE
Pressure: 30.3"   Gusts: NA
Location:  29.79°N, 94.38°W
Report Text: KBMT 281815Z AUTO 13010KT 10SM CLR 19/12 A3030 RMK AO2 T01910115
Loading
Personal Weather Stations






























Interactive Weather Map New forecast layout! Learn more

10-Day Weather Forecast

Advertisements
Track Severe Weather on mobile